createdAt,value
2018-04-27T00:00:32.758Z,98.30
2018-04-27T00:04:37.386Z,98.20
2018-04-27T00:08:40.141Z,98.20
2018-04-27T00:12:43.239Z,98.20
2018-04-27T00:16:45.946Z,98.30
2018-04-27T00:20:49.616Z,98.20
2018-04-27T00:24:52.353Z,98.20
2018-04-27T00:28:57.136Z,98.30
2018-04-27T00:33:00.749Z,98.30
2018-04-27T00:37:03.541Z,98.30
2018-04-27T00:41:06.247Z,98.30
2018-04-27T00:45:09.790Z,98.40
2018-04-27T00:49:12.535Z,98.40
2018-04-27T00:53:15.357Z,98.30
2018-04-27T00:57:18.949Z,98.40
2018-04-27T01:01:21.677Z,98.40
2018-04-27T01:05:25.232Z,98.40
2018-04-27T01:09:28.798Z,98.40
2018-04-27T01:13:33.332Z,98.40
2018-04-27T01:17:36.823Z,98.40
2018-04-27T01:21:39.604Z,98.40
2018-04-27T01:25:42.342Z,98.50
2018-04-27T01:29:45.882Z,98.60
2018-04-27T01:33:48.623Z,98.50
2018-04-27T01:37:51.477Z,98.60
2018-04-27T01:41:54.214Z,98.60
2018-04-27T01:45:56.958Z,98.60
2018-04-27T01:50:00.448Z,98.50
2018-04-27T01:54:03.182Z,98.50
2018-04-27T01:58:06.017Z,98.50
2018-04-27T02:02:09.571Z,98.60
2018-04-27T02:06:13.058Z,98.60
2018-04-27T02:10:15.788Z,98.60
2018-04-27T02:14:19.277Z,98.50
2018-04-27T02:18:23.128Z,98.50
2018-04-27T02:22:26.641Z,98.50
2018-04-27T02:26:29.387Z,98.50
2018-04-27T02:30:32.091Z,98.50
2018-04-27T02:34:35.084Z,98.50
2018-04-27T02:38:37.850Z,98.60
2018-04-27T02:42:40.555Z,98.60
2018-04-27T02:46:43.357Z,98.50
2018-04-27T02:50:46.282Z,98.60
2018-04-27T02:54:49.035Z,98.60
2018-04-27T02:58:51.776Z,98.70
2018-04-27T03:02:54.690Z,98.70
2018-04-27T03:06:57.397Z,99.00
2018-04-27T03:11:00.124Z,98.70
2018-04-27T03:15:02.859Z,99.00
2018-04-27T03:19:05.617Z,98.80
2018-04-27T03:23:09.105Z,98.70
2018-04-27T03:27:12.611Z,98.70
2018-04-27T03:31:15.339Z,98.70
2018-04-27T03:35:18.077Z,98.70
2018-04-27T03:39:20.800Z,98.70
2018-04-27T03:43:23.594Z,98.70
2018-04-27T03:47:26.351Z,98.70
2018-04-27T03:51:29.133Z,99.00
2018-04-27T03:55:32.671Z,98.70
2018-04-27T03:59:47.332Z,98.70
2018-04-27T04:04:02.014Z,98.60
2018-04-27T04:08:05.513Z,98.60
2018-04-27T04:12:08.238Z,98.60
2018-04-27T04:16:10.955Z,98.60
2018-04-27T04:20:15.494Z,98.70
2018-04-27T04:24:18.994Z,98.70
2018-04-27T04:28:21.767Z,98.70
2018-04-27T04:32:24.630Z,98.70
2018-04-27T04:36:27.424Z,98.70
2018-04-27T04:40:30.205Z,98.70
2018-04-27T04:44:33.686Z,98.70
2018-04-27T04:48:37.234Z,98.70
2018-04-27T04:52:40.778Z,98.80
2018-04-27T04:56:43.428Z,98.80
2018-04-27T05:00:46.177Z,98.60
2018-04-27T05:04:49.002Z,98.70
2018-04-27T05:08:51.720Z,98.60
2018-04-27T05:12:54.618Z,98.50
2018-04-27T05:16:57.336Z,98.50
2018-04-27T05:21:00.838Z,98.60
2018-04-27T05:25:04.343Z,98.50
2018-04-27T05:29:07.113Z,98.60
2018-04-27T05:33:11.610Z,98.60
2018-04-27T05:37:14.494Z,98.60
2018-04-27T05:41:18.130Z,98.30
2018-04-27T05:45:21.279Z,98.30
2018-04-27T05:49:24.053Z,97.80
2018-04-27T05:53:26.898Z,97.30
2018-04-27T05:57:29.672Z,97.10
2018-04-27T06:01:32.464Z,95.40
2018-04-27T06:05:35.268Z,94.80
2018-04-27T06:09:38.017Z,95.10
2018-04-27T06:13:40.818Z,95.20
2018-04-27T06:17:43.543Z,94.90
2018-04-27T06:21:46.291Z,94.50
2018-04-27T06:25:50.006Z,94.30
2018-04-27T06:29:52.774Z,94.20
2018-04-27T06:33:55.509Z,94.00
2018-04-27T06:37:58.355Z,93.60
2018-04-27T06:42:01.157Z,93.60
2018-04-27T06:46:05.041Z,93.80
2018-04-27T06:50:07.781Z,92.70
2018-04-27T06:54:10.598Z,92.70
2018-04-27T06:58:13.410Z,92.80
2018-04-27T07:02:17.181Z,92.30
2018-04-27T07:06:21.015Z,92.00
2018-04-27T07:10:23.776Z,92.10
2018-04-27T07:14:26.629Z,91.60
2018-04-27T07:18:29.405Z,91.10
2018-04-27T07:22:32.169Z,90.20
2018-04-27T07:26:34.979Z,91.60
2018-04-27T07:30:37.746Z,91.40
2018-04-27T07:34:41.252Z,91.10
2018-04-27T07:38:44.747Z,90.90
2018-04-27T07:42:47.668Z,90.90
2018-04-27T07:46:51.253Z,91.70
2018-04-27T07:50:54.086Z,91.50
2018-04-27T07:54:57.686Z,85.10
2018-04-27T07:59:00.535Z,85.10
2018-04-27T08:03:03.420Z,85.40
2018-04-27T08:07:07.408Z,86.10
2018-04-27T08:11:10.225Z,83.00
2018-04-27T08:15:13.819Z,80.40
2018-04-27T08:19:16.690Z,80.50
2018-04-27T08:23:19.513Z,80.70
2018-04-27T08:27:22.403Z,78.60
2018-04-27T08:31:25.221Z,79.50
2018-04-27T08:35:28.807Z,81.00
2018-04-27T08:39:31.567Z,81.00
2018-04-27T08:43:34.308Z,82.10
2018-04-27T08:47:37.065Z,79.80
2018-04-27T08:51:39.843Z,79.60
2018-04-27T08:55:42.666Z,79.50
2018-04-27T08:59:45.541Z,76.00
2018-04-27T09:03:49.075Z,70.50
2018-04-27T09:07:51.903Z,70.50
2018-04-27T09:11:54.850Z,70.10
2018-04-27T09:15:57.669Z,67.40
2018-04-27T09:20:00.435Z,61.50
2018-04-27T09:24:03.206Z,61.50
2018-04-27T09:28:06.774Z,56.10
2018-04-27T09:32:09.523Z,56.30
2018-04-27T09:36:13.033Z,56.10
2018-04-27T09:40:15.858Z,56.20
2018-04-27T09:44:18.633Z,54.00
2018-04-27T09:48:21.370Z,51.50
2018-04-27T09:52:25.024Z,55.30
2018-04-27T09:56:27.771Z,55.20
2018-04-27T10:00:30.535Z,46.80
2018-04-27T10:04:33.303Z,49.40
2018-04-27T10:08:36.111Z,52.20
2018-04-27T10:12:38.843Z,46.20
2018-04-27T10:16:41.582Z,48.60
2018-04-27T10:20:44.407Z,48.50
2018-04-27T10:24:47.126Z,45.70
2018-04-27T10:28:49.858Z,45.50
2018-04-27T10:32:53.525Z,45.70
2018-04-27T10:36:56.249Z,45.70
2018-04-27T10:41:00.027Z,46.50
2018-04-27T10:45:02.767Z,47.60
2018-04-27T10:49:05.716Z,46.10
2018-04-27T10:53:08.550Z,46.80
2018-04-27T10:57:12.157Z,45.60
2018-04-27T11:01:15.043Z,45.60
2018-04-27T11:05:17.910Z,44.70
2018-04-27T11:09:21.479Z,45.60
2018-04-27T11:13:24.405Z,45.60
2018-04-27T11:17:27.229Z,42.40
2018-04-27T11:21:31.043Z,42.10
2018-04-27T11:25:35.641Z,39.30
2018-04-27T11:29:38.379Z,39.20
2018-04-27T11:33:41.860Z,38.60
2018-04-27T11:37:44.658Z,38.60
2018-04-27T11:41:47.568Z,40.10
2018-04-27T11:45:50.352Z,35.70
2018-04-27T11:49:53.188Z,39.70
2018-04-27T11:53:56.840Z,37.70
2018-04-27T11:57:59.788Z,37.80
2018-04-27T12:02:02.708Z,39.10
2018-04-27T12:06:06.313Z,38.20
2018-04-27T12:10:09.140Z,38.00
2018-04-27T12:14:11.994Z,35.10
2018-04-27T12:18:14.977Z,37.00
2018-04-27T12:22:17.726Z,37.40
2018-04-27T12:26:21.345Z,36.20
2018-04-27T12:30:24.825Z,36.40
2018-04-27T12:34:27.591Z,36.50
2018-04-27T12:38:30.439Z,32.50
2018-04-27T12:42:33.200Z,33.50
2018-04-27T12:46:36.864Z,35.20
2018-04-27T12:50:40.446Z,35.60
2018-04-27T12:54:43.281Z,35.60
2018-04-27T12:58:46.772Z,38.50
2018-04-27T13:02:49.580Z,38.40
2018-04-27T13:06:52.448Z,37.80
2018-04-27T13:10:55.252Z,36.40
2018-04-27T13:14:58.299Z,38.50
2018-04-27T13:19:03.823Z,36.10
2018-04-27T13:23:07.100Z,39.80
2018-04-27T13:27:09.825Z,37.20
2018-04-27T13:31:12.704Z,34.00
2018-04-27T13:35:15.444Z,36.10
2018-04-27T13:39:35.764Z,36.60
2018-04-27T13:43:38.793Z,38.40
2018-04-27T13:47:41.581Z,38.80
2018-04-27T13:51:44.442Z,41.20
2018-04-27T13:55:48.113Z,43.60
2018-04-27T13:59:51.009Z,45.20
2018-04-27T14:03:54.369Z,48.10
2018-04-27T14:07:58.028Z,42.40
2018-04-27T14:12:00.817Z,42.40
2018-04-27T14:16:04.846Z,42.30
2018-04-27T14:20:08.152Z,41.70
2018-04-27T14:24:10.953Z,45.10
2018-04-27T14:28:13.937Z,43.70
2018-04-27T14:32:16.748Z,44.90
2018-04-27T14:36:19.877Z,43.70
2018-04-27T14:40:22.636Z,47.20
2018-04-27T14:44:26.170Z,48.60
2018-04-27T14:48:29.092Z,48.70
2018-04-27T14:52:31.976Z,47.20
2018-04-27T14:56:35.596Z,47.40
2018-04-27T15:00:38.425Z,47.40
2018-04-27T15:04:41.165Z,44.90
2018-04-27T15:08:46.722Z,47.60
2018-04-27T15:12:50.310Z,49.40
2018-04-27T15:16:53.157Z,49.20
2018-04-27T15:20:55.906Z,48.60
2018-04-27T15:24:59.478Z,50.10
2018-04-27T15:29:02.327Z,50.20
2018-04-27T15:33:05.865Z,50.80
2018-04-27T15:37:09.587Z,49.60
2018-04-27T15:41:12.442Z,49.60
2018-04-27T15:45:15.273Z,51.50
2018-04-27T15:49:18.920Z,53.00
2018-04-27T15:53:21.807Z,52.90
2018-04-27T15:57:24.697Z,52.90
2018-04-27T16:01:28.362Z,54.00
2018-04-27T16:05:31.172Z,53.70
2018-04-27T16:09:34.193Z,55.70
2018-04-27T16:13:52.697Z,57.60
2018-04-27T16:17:55.521Z,57.60
2018-04-27T16:21:58.424Z,61.50
2018-04-27T16:26:01.235Z,61.10
2018-04-27T16:30:04.165Z,56.80
2018-04-27T16:34:08.748Z,60.80
2018-04-27T16:38:11.848Z,60.80
2018-04-27T16:42:18.663Z,62.00
2018-04-27T16:46:21.492Z,60.70
2018-04-27T16:50:25.142Z,58.70
2018-04-27T16:54:27.991Z,58.40
2018-04-27T16:58:30.834Z,60.40
2018-04-27T17:02:33.626Z,62.60
2018-04-27T17:06:37.102Z,62.40
2018-04-27T17:10:40.091Z,62.60
2018-04-27T17:14:42.912Z,66.30
2018-04-27T17:18:46.583Z,69.40
2018-04-27T17:22:49.379Z,69.40
2018-04-27T17:26:52.212Z,72.30
2018-04-27T17:30:55.182Z,75.30
2018-04-27T17:34:58.263Z,76.60
2018-04-27T17:39:02.136Z,77.80
2018-04-27T17:43:05.498Z,79.50
2018-04-27T17:47:08.498Z,80.60
2018-04-27T17:51:11.741Z,81.30
2018-04-27T17:55:15.719Z,82.50
2018-04-27T17:59:18.592Z,82.40
2018-04-27T18:03:21.386Z,83.70
2018-04-27T18:07:24.329Z,84.00
2018-04-27T18:11:28.710Z,84.60
2018-04-27T18:15:31.516Z,85.50
2018-04-27T18:19:34.395Z,86.40
2018-04-27T18:23:37.256Z,87.20
2018-04-27T18:27:40.200Z,88.70
2018-04-27T18:31:43.064Z,88.60
2018-04-27T18:35:45.893Z,89.50
2018-04-27T18:39:48.685Z,90.30
2018-04-27T18:43:52.413Z,90.80
2018-04-27T18:47:55.240Z,90.80
2018-04-27T18:51:59.692Z,90.80
2018-04-27T18:56:06.977Z,91.00
2018-04-27T19:00:10.611Z,91.70
2018-04-27T19:04:16.432Z,91.70
2018-04-27T19:08:19.326Z,91.60
2018-04-27T19:12:24.105Z,91.80
2018-04-27T19:16:27.681Z,92.50
2018-04-27T19:20:30.548Z,92.50
2018-04-27T19:24:33.448Z,92.60
2018-04-27T19:28:36.430Z,92.60
2018-04-27T19:32:40.193Z,93.30
2018-04-27T19:36:43.239Z,93.20
2018-04-27T19:40:46.818Z,93.40
2018-04-27T19:44:49.823Z,93.40
2018-04-27T19:48:52.643Z,93.30
2018-04-27T19:52:55.618Z,93.50
2018-04-27T19:56:58.611Z,93.50
2018-04-27T20:01:01.499Z,93.80
2018-04-27T20:05:04.371Z,93.80
2018-04-27T20:09:07.230Z,93.80
2018-04-27T20:13:21.778Z,93.90
2018-04-27T20:17:36.538Z,93.90
2018-04-27T20:21:39.355Z,93.90
2018-04-27T20:25:42.388Z,94.50
2018-04-27T20:29:45.270Z,94.60
2018-04-27T20:33:48.186Z,94.70
2018-04-27T20:38:00.847Z,94.80
2018-04-27T20:42:05.809Z,94.80
2018-04-27T20:46:08.661Z,94.90
2018-04-27T20:50:11.626Z,95.00
2018-04-27T20:54:14.421Z,95.00
2018-04-27T20:58:17.307Z,95.10
2018-04-27T21:02:20.108Z,95.30
2018-04-27T21:06:23.066Z,95.10
2018-04-27T21:10:30.394Z,95.40
2018-04-27T21:14:33.277Z,95.30
2018-04-27T21:18:36.098Z,95.30
2018-04-27T21:22:41.655Z,95.30
2018-04-27T21:26:44.509Z,95.30
2018-04-27T21:30:48.865Z,95.50
2018-04-27T21:34:51.718Z,95.50
2018-04-27T21:43:30.171Z,95.40
2018-04-27T21:47:50.525Z,95.40
2018-04-27T21:52:00.057Z,95.40
2018-04-27T21:56:02.900Z,95.30
2018-04-27T22:00:18.849Z,95.30
2018-04-27T22:04:22.470Z,95.30
2018-04-27T22:08:31.261Z,95.30
2018-04-27T22:12:35.958Z,95.30
2018-04-27T22:16:40.415Z,95.30
2018-04-27T22:20:52.920Z,95.20
2018-04-27T22:25:01.477Z,95.20
2018-04-27T22:29:07.032Z,95.50
2018-04-27T22:33:15.842Z,95.40
2018-04-27T22:37:19.542Z,95.70
2018-04-27T22:41:22.830Z,95.70
2018-04-27T22:45:36.485Z,95.60
2018-04-27T22:49:39.372Z,95.70
2018-04-27T22:53:44.155Z,95.70
2018-04-27T22:58:07.665Z,95.70
2018-04-27T23:02:13.321Z,95.70
2018-04-27T23:06:16.145Z,95.60
2018-04-27T23:10:20.138Z,95.80
2018-04-27T23:14:28.333Z,95.80
2018-04-27T23:18:42.924Z,95.70
2018-04-27T23:22:45.983Z,95.70
2018-04-27T23:26:50.336Z,95.80
2018-04-27T23:30:53.215Z,95.80
2018-04-27T23:34:56.813Z,95.90
2018-04-27T23:38:59.632Z,95.90
2018-04-27T23:43:03.351Z,95.90
2018-04-27T23:47:06.930Z,95.90
2018-04-27T23:51:09.818Z,96.00
2018-04-27T23:55:12.621Z,95.90
2018-04-27T23:59:18.329Z,96.00
